sensor_id;sensor_type;location;lat;lon;timestamp;P1;durP1;ratioP1;P2;durP2;ratioP2
70247;SDS011;57641;51.416;5.506;2023-04-15T00:00:41;11.85;;;4.45;;
70247;SDS011;57641;51.416;5.506;2023-04-15T00:03:06;7.55;;;3.63;;
70247;SDS011;57641;51.416;5.506;2023-04-15T00:05:33;7.70;;;3.42;;
70247;SDS011;57641;51.416;5.506;2023-04-15T00:07:59;8.35;;;3.30;;
70247;SDS011;57641;51.416;5.506;2023-04-15T00:10:26;6.53;;;3.78;;
70247;SDS011;57641;51.416;5.506;2023-04-15T00:12:52;8.05;;;3.67;;
70247;SDS011;57641;51.416;5.506;2023-04-15T00:15:18;8.52;;;3.92;;
70247;SDS011;57641;51.416;5.506;2023-04-15T00:17:44;8.77;;;3.80;;
70247;SDS011;57641;51.416;5.506;2023-04-15T00:20:10;8.75;;;3.90;;
70247;SDS011;57641;51.416;5.506;2023-04-15T00:22:36;6.68;;;3.92;;
70247;SDS011;57641;51.416;5.506;2023-04-15T00:25:02;8.25;;;3.97;;
70247;SDS011;57641;51.416;5.506;2023-04-15T00:27:27;8.90;;;4.25;;
70247;SDS011;57641;51.416;5.506;2023-04-15T00:29:54;6.78;;;3.58;;
70247;SDS011;57641;51.416;5.506;2023-04-15T00:32:20;8.60;;;4.22;;
70247;SDS011;57641;51.416;5.506;2023-04-15T00:34:46;5.90;;;3.53;;
70247;SDS011;57641;51.416;5.506;2023-04-15T00:37:11;6.50;;;3.50;;
70247;SDS011;57641;51.416;5.506;2023-04-15T00:39:37;7.57;;;3.70;;
70247;SDS011;57641;51.416;5.506;2023-04-15T00:42:03;7.00;;;3.55;;
70247;SDS011;57641;51.416;5.506;2023-04-15T00:44:29;7.68;;;3.63;;
70247;SDS011;57641;51.416;5.506;2023-04-15T00:46:55;8.70;;;4.20;;
70247;SDS011;57641;51.416;5.506;2023-04-15T00:49:21;5.82;;;3.80;;
70247;SDS011;57641;51.416;5.506;2023-04-15T00:51:47;6.20;;;3.95;;
70247;SDS011;57641;51.416;5.506;2023-04-15T00:54:13;7.28;;;3.67;;
70247;SDS011;57641;51.416;5.506;2023-04-15T00:56:39;8.48;;;3.92;;
70247;SDS011;57641;51.416;5.506;2023-04-15T00:59:05;6.97;;;4.38;;
70247;SDS011;57641;51.416;5.506;2023-04-15T01:01:32;8.75;;;3.97;;
70247;SDS011;57641;51.416;5.506;2023-04-15T01:03:59;6.75;;;4.18;;
70247;SDS011;57641;51.416;5.506;2023-04-15T01:06:28;5.68;;;3.90;;
70247;SDS011;57641;51.416;5.506;2023-04-15T01:08:56;8.43;;;4.50;;
70247;SDS011;57641;51.416;5.506;2023-04-15T01:11:23;6.32;;;4.07;;
70247;SDS011;57641;51.416;5.506;2023-04-15T01:13:52;9.18;;;4.50;;
70247;SDS011;57641;51.416;5.506;2023-04-15T01:16:21;6.88;;;4.18;;
70247;SDS011;57641;51.416;5.506;2023-04-15T01:18:46;7.38;;;4.22;;
70247;SDS011;57641;51.416;5.506;2023-04-15T01:21:13;7.22;;;4.43;;
70247;SDS011;57641;51.416;5.506;2023-04-15T01:23:38;8.15;;;4.35;;
70247;SDS011;57641;51.416;5.506;2023-04-15T01:26:07;8.10;;;4.90;;
70247;SDS011;57641;51.416;5.506;2023-04-15T01:28:34;8.02;;;4.68;;
70247;SDS011;57641;51.416;5.506;2023-04-15T01:31:07;8.48;;;4.80;;
70247;SDS011;57641;51.416;5.506;2023-04-15T01:33:35;14.20;;;5.75;;
70247;SDS011;57641;51.416;5.506;2023-04-15T01:36:02;10.20;;;5.85;;
70247;SDS011;57641;51.416;5.506;2023-04-15T01:38:30;11.85;;;5.40;;
70247;SDS011;57641;51.416;5.506;2023-04-15T01:40:56;8.75;;;5.63;;
70247;SDS011;57641;51.416;5.506;2023-04-15T01:43:23;7.47;;;4.93;;
70247;SDS011;57641;51.416;5.506;2023-04-15T01:45:49;11.10;;;5.53;;
70247;SDS011;57641;51.416;5.506;2023-04-15T01:48:15;10.18;;;5.60;;
70247;SDS011;57641;51.416;5.506;2023-04-15T01:50:42;10.57;;;5.30;;
70247;SDS011;57641;51.416;5.506;2023-04-15T01:53:08;8.20;;;5.70;;
70247;SDS011;57641;51.416;5.506;2023-04-15T01:55:34;9.55;;;5.90;;
70247;SDS011;57641;51.416;5.506;2023-04-15T01:57:59;9.70;;;5.70;;
70247;SDS011;57641;51.416;5.506;2023-04-15T02:00:28;10.00;;;5.80;;
70247;SDS011;57641;51.416;5.506;2023-04-15T02:02:54;8.48;;;5.55;;
70247;SDS011;57641;51.416;5.506;2023-04-15T02:05:20;9.60;;;6.35;;
70247;SDS011;57641;51.416;5.506;2023-04-15T02:07:45;10.05;;;6.22;;
70247;SDS011;57641;51.416;5.506;2023-04-15T02:10:12;9.80;;;5.82;;
70247;SDS011;57641;51.416;5.506;2023-04-15T02:12:38;12.32;;;6.30;;
70247;SDS011;57641;51.416;5.506;2023-04-15T02:15:05;11.00;;;6.20;;
70247;SDS011;57641;51.416;5.506;2023-04-15T02:17:34;9.50;;;6.50;;
70247;SDS011;57641;51.416;5.506;2023-04-15T02:20:00;12.05;;;6.20;;
70247;SDS011;57641;51.416;5.506;2023-04-15T02:22:26;12.13;;;7.00;;
70247;SDS011;57641;51.416;5.506;2023-04-15T02:24:52;10.02;;;6.40;;
70247;SDS011;57641;51.416;5.506;2023-04-15T02:27:21;11.30;;;6.57;;
70247;SDS011;57641;51.416;5.506;2023-04-15T02:29:46;10.35;;;6.72;;
70247;SDS011;57641;51.416;5.506;2023-04-15T02:32:14;10.75;;;6.57;;
70247;SDS011;57641;51.416;5.506;2023-04-15T02:34:40;13.93;;;7.13;;
70247;SDS011;57641;51.416;5.506;2023-04-15T02:37:10;10.82;;;6.95;;
70247;SDS011;57641;51.416;5.506;2023-04-15T02:39:36;13.10;;;7.55;;
70247;SDS011;57641;51.416;5.506;2023-04-15T02:42:03;12.77;;;7.53;;
70247;SDS011;57641;51.416;5.506;2023-04-15T02:44:30;12.50;;;6.90;;
70247;SDS011;57641;51.416;5.506;2023-04-15T02:46:57;10.93;;;7.35;;
70247;SDS011;57641;51.416;5.506;2023-04-15T02:49:25;11.38;;;7.18;;
70247;SDS011;57641;51.416;5.506;2023-04-15T02:51:50;14.57;;;7.57;;
70247;SDS011;57641;51.416;5.506;2023-04-15T02:54:16;10.55;;;7.05;;
70247;SDS011;57641;51.416;5.506;2023-04-15T02:56:42;9.52;;;6.93;;
70247;SDS011;57641;51.416;5.506;2023-04-15T02:59:08;12.65;;;7.25;;
70247;SDS011;57641;51.416;5.506;2023-04-15T03:01:33;12.80;;;7.00;;
70247;SDS011;57641;51.416;5.506;2023-04-15T03:03:59;11.73;;;6.97;;
70247;SDS011;57641;51.416;5.506;2023-04-15T03:06:25;11.18;;;7.43;;
70247;SDS011;57641;51.416;5.506;2023-04-15T03:08:51;14.55;;;7.60;;
70247;SDS011;57641;51.416;5.506;2023-04-15T03:11:16;9.93;;;7.00;;
70247;SDS011;57641;51.416;5.506;2023-04-15T03:13:44;13.38;;;8.23;;
70247;SDS011;57641;51.416;5.506;2023-04-15T03:16:10;13.88;;;7.45;;
70247;SDS011;57641;51.416;5.506;2023-04-15T03:18:36;13.25;;;7.55;;
70247;SDS011;57641;51.416;5.506;2023-04-15T03:21:02;14.55;;;7.07;;
70247;SDS011;57641;51.416;5.506;2023-04-15T03:23:29;11.18;;;7.50;;
70247;SDS011;57641;51.416;5.506;2023-04-15T03:25:55;14.23;;;7.70;;
70247;SDS011;57641;51.416;5.506;2023-04-15T03:28:22;12.70;;;7.43;;
70247;SDS011;57641;51.416;5.506;2023-04-15T03:30:48;11.75;;;8.00;;
70247;SDS011;57641;51.416;5.506;2023-04-15T03:33:13;13.95;;;7.97;;
70247;SDS011;57641;51.416;5.506;2023-04-15T03:35:39;15.63;;;8.10;;
70247;SDS011;57641;51.416;5.506;2023-04-15T03:38:05;10.00;;;6.97;;
70247;SDS011;57641;51.416;5.506;2023-04-15T03:40:31;11.35;;;7.45;;
70247;SDS011;57641;51.416;5.506;2023-04-15T03:42:56;12.63;;;8.02;;
70247;SDS011;57641;51.416;5.506;2023-04-15T03:45:22;12.73;;;8.27;;
70247;SDS011;57641;51.416;5.506;2023-04-15T03:47:47;12.70;;;8.02;;
70247;SDS011;57641;51.416;5.506;2023-04-15T03:50:13;12.23;;;8.13;;
70247;SDS011;57641;51.416;5.506;2023-04-15T03:52:39;16.23;;;7.97;;
70247;SDS011;57641;51.416;5.506;2023-04-15T03:55:05;13.43;;;7.90;;
70247;SDS011;57641;51.416;5.506;2023-04-15T03:57:32;13.23;;;7.90;;
70247;SDS011;57641;51.416;5.506;2023-04-15T04:00:03;14.77;;;8.23;;
70247;SDS011;57641;51.416;5.506;2023-04-15T04:02:30;13.57;;;8.32;;
70247;SDS011;57641;51.416;5.506;2023-04-15T04:04:55;12.63;;;7.97;;
70247;SDS011;57641;51.416;5.506;2023-04-15T04:07:22;10.38;;;7.22;;
70247;SDS011;57641;51.416;5.506;2023-04-15T04:09:48;14.25;;;8.25;;
70247;SDS011;57641;51.416;5.506;2023-04-15T04:12:14;13.68;;;8.23;;
70247;SDS011;57641;51.416;5.506;2023-04-15T04:14:39;11.75;;;7.35;;
70247;SDS011;57641;51.416;5.506;2023-04-15T04:17:05;15.93;;;7.82;;
70247;SDS011;57641;51.416;5.506;2023-04-15T04:19:30;12.57;;;7.70;;
70247;SDS011;57641;51.416;5.506;2023-04-15T04:21:56;12.02;;;7.18;;
70247;SDS011;57641;51.416;5.506;2023-04-15T04:24:21;16.55;;;7.05;;
70247;SDS011;57641;51.416;5.506;2023-04-15T04:26:47;15.50;;;7.57;;
70247;SDS011;57641;51.416;5.506;2023-04-15T04:29:12;13.57;;;7.47;;
70247;SDS011;57641;51.416;5.506;2023-04-15T04:31:38;13.55;;;6.97;;
70247;SDS011;57641;51.416;5.506;2023-04-15T04:34:03;12.23;;;7.32;;
70247;SDS011;57641;51.416;5.506;2023-04-15T04:36:29;10.18;;;7.22;;
70247;SDS011;57641;51.416;5.506;2023-04-15T04:38:54;12.80;;;7.07;;
70247;SDS011;57641;51.416;5.506;2023-04-15T04:41:20;13.38;;;7.18;;
70247;SDS011;57641;51.416;5.506;2023-04-15T04:43:45;11.63;;;7.20;;
70247;SDS011;57641;51.416;5.506;2023-04-15T04:46:11;13.45;;;7.13;;
70247;SDS011;57641;51.416;5.506;2023-04-15T04:48:37;12.30;;;7.60;;
70247;SDS011;57641;51.416;5.506;2023-04-15T04:51:03;13.65;;;6.95;;
70247;SDS011;57641;51.416;5.506;2023-04-15T04:53:29;12.00;;;6.70;;
70247;SDS011;57641;51.416;5.506;2023-04-15T04:55:58;11.18;;;7.00;;
70247;SDS011;57641;51.416;5.506;2023-04-15T04:58:23;11.80;;;6.93;;
70247;SDS011;57641;51.416;5.506;2023-04-15T05:00:49;11.18;;;6.30;;
70247;SDS011;57641;51.416;5.506;2023-04-15T05:03:15;14.13;;;7.43;;
70247;SDS011;57641;51.416;5.506;2023-04-15T05:05:40;11.05;;;6.50;;
70247;SDS011;57641;51.416;5.506;2023-04-15T05:08:06;15.02;;;7.55;;
70247;SDS011;57641;51.416;5.506;2023-04-15T05:10:31;11.57;;;6.82;;
70247;SDS011;57641;51.416;5.506;2023-04-15T05:12:57;11.18;;;7.03;;
70247;SDS011;57641;51.416;5.506;2023-04-15T05:15:23;14.52;;;7.70;;
70247;SDS011;57641;51.416;5.506;2023-04-15T05:17:48;10.88;;;6.90;;
70247;SDS011;57641;51.416;5.506;2023-04-15T05:20:14;12.50;;;7.10;;
70247;SDS011;57641;51.416;5.506;2023-04-15T05:22:39;9.77;;;6.50;;
70247;SDS011;57641;51.416;5.506;2023-04-15T05:25:05;9.82;;;6.28;;
70247;SDS011;57641;51.416;5.506;2023-04-15T05:27:31;14.35;;;7.05;;
70247;SDS011;57641;51.416;5.506;2023-04-15T05:29:57;11.63;;;7.18;;
70247;SDS011;57641;51.416;5.506;2023-04-15T05:32:22;14.30;;;7.75;;
70247;SDS011;57641;51.416;5.506;2023-04-15T05:34:48;13.27;;;7.22;;
70247;SDS011;57641;51.416;5.506;2023-04-15T05:37:13;12.27;;;7.05;;
70247;SDS011;57641;51.416;5.506;2023-04-15T05:39:39;11.45;;;7.85;;
70247;SDS011;57641;51.416;5.506;2023-04-15T05:42:06;13.38;;;7.80;;
70247;SDS011;57641;51.416;5.506;2023-04-15T05:44:32;13.20;;;7.60;;
70247;SDS011;57641;51.416;5.506;2023-04-15T05:46:58;11.30;;;7.25;;
70247;SDS011;57641;51.416;5.506;2023-04-15T05:49:23;15.68;;;7.88;;
70247;SDS011;57641;51.416;5.506;2023-04-15T05:51:49;12.57;;;7.30;;
70247;SDS011;57641;51.416;5.506;2023-04-15T05:54:15;12.50;;;7.70;;
70247;SDS011;57641;51.416;5.506;2023-04-15T05:56:41;14.77;;;7.50;;
70247;SDS011;57641;51.416;5.506;2023-04-15T05:59:06;14.45;;;8.32;;
70247;SDS011;57641;51.416;5.506;2023-04-15T06:01:32;15.88;;;8.35;;
70247;SDS011;57641;51.416;5.506;2023-04-15T06:03:59;12.50;;;7.65;;
70247;SDS011;57641;51.416;5.506;2023-04-15T06:06:25;15.35;;;7.65;;
70247;SDS011;57641;51.416;5.506;2023-04-15T06:08:51;12.65;;;8.20;;
70247;SDS011;57641;51.416;5.506;2023-04-15T06:11:17;12.05;;;8.20;;
70247;SDS011;57641;51.416;5.506;2023-04-15T06:13:46;14.02;;;8.25;;
70247;SDS011;57641;51.416;5.506;2023-04-15T06:16:11;14.10;;;7.43;;
70247;SDS011;57641;51.416;5.506;2023-04-15T06:18:37;14.20;;;8.40;;
70247;SDS011;57641;51.416;5.506;2023-04-15T06:21:03;14.70;;;8.25;;
70247;SDS011;57641;51.416;5.506;2023-04-15T06:23:29;14.50;;;8.40;;
70247;SDS011;57641;51.416;5.506;2023-04-15T06:25:55;13.05;;;7.90;;
70247;SDS011;57641;51.416;5.506;2023-04-15T06:28:21;14.48;;;7.68;;
70247;SDS011;57641;51.416;5.506;2023-04-15T06:30:46;14.93;;;8.13;;
70247;SDS011;57641;51.416;5.506;2023-04-15T06:33:12;15.15;;;8.30;;
70247;SDS011;57641;51.416;5.506;2023-04-15T06:35:37;13.07;;;7.90;;
70247;SDS011;57641;51.416;5.506;2023-04-15T06:38:03;13.40;;;8.25;;
70247;SDS011;57641;51.416;5.506;2023-04-15T06:40:29;12.82;;;7.85;;
70247;SDS011;57641;51.416;5.506;2023-04-15T06:42:55;14.40;;;7.70;;
70247;SDS011;57641;51.416;5.506;2023-04-15T06:45:21;14.70;;;7.43;;
70247;SDS011;57641;51.416;5.506;2023-04-15T06:47:46;12.30;;;7.32;;
70247;SDS011;57641;51.416;5.506;2023-04-15T06:50:15;12.13;;;7.13;;
70247;SDS011;57641;51.416;5.506;2023-04-15T06:52:41;12.82;;;7.25;;
70247;SDS011;57641;51.416;5.506;2023-04-15T06:55:07;12.40;;;7.03;;
70247;SDS011;57641;51.416;5.506;2023-04-15T06:57:32;14.65;;;7.57;;
70247;SDS011;57641;51.416;5.506;2023-04-15T06:59:58;12.65;;;7.88;;
70247;SDS011;57641;51.416;5.506;2023-04-15T07:02:23;12.52;;;7.80;;
70247;SDS011;57641;51.416;5.506;2023-04-15T07:04:49;12.15;;;6.57;;
70247;SDS011;57641;51.416;5.506;2023-04-15T07:07:15;12.50;;;7.43;;
70247;SDS011;57641;51.416;5.506;2023-04-15T07:09:41;12.38;;;8.45;;
70247;SDS011;57641;51.416;5.506;2023-04-15T07:12:08;13.90;;;7.85;;
70247;SDS011;57641;51.416;5.506;2023-04-15T07:14:33;11.18;;;6.80;;
70247;SDS011;57641;51.416;5.506;2023-04-15T07:16:59;9.80;;;6.88;;
70247;SDS011;57641;51.416;5.506;2023-04-15T07:19:24;11.80;;;7.57;;
70247;SDS011;57641;51.416;5.506;2023-04-15T07:21:50;11.45;;;7.25;;
70247;SDS011;57641;51.416;5.506;2023-04-15T07:24:16;12.65;;;7.07;;
70247;SDS011;57641;51.416;5.506;2023-04-15T07:26:43;11.88;;;7.03;;
70247;SDS011;57641;51.416;5.506;2023-04-15T07:29:09;10.27;;;6.63;;
70247;SDS011;57641;51.416;5.506;2023-04-15T07:31:34;10.63;;;6.22;;
70247;SDS011;57641;51.416;5.506;2023-04-15T07:34:01;10.85;;;6.60;;
70247;SDS011;57641;51.416;5.506;2023-04-15T07:36:27;10.25;;;6.75;;
70247;SDS011;57641;51.416;5.506;2023-04-15T07:38:53;9.52;;;6.13;;
70247;SDS011;57641;51.416;5.506;2023-04-15T07:41:19;10.48;;;6.80;;
70247;SDS011;57641;51.416;5.506;2023-04-15T07:43:46;9.55;;;6.00;;
70247;SDS011;57641;51.416;5.506;2023-04-15T07:46:13;9.43;;;6.55;;
70247;SDS011;57641;51.416;5.506;2023-04-15T07:48:39;9.35;;;6.55;;
70247;SDS011;57641;51.416;5.506;2023-04-15T07:51:05;9.75;;;5.60;;
70247;SDS011;57641;51.416;5.506;2023-04-15T07:53:30;10.15;;;5.95;;
70247;SDS011;57641;51.416;5.506;2023-04-15T07:55:57;10.05;;;5.90;;
70247;SDS011;57641;51.416;5.506;2023-04-15T07:58:23;7.38;;;4.90;;
70247;SDS011;57641;51.416;5.506;2023-04-15T08:00:49;9.18;;;5.95;;
70247;SDS011;57641;51.416;5.506;2023-04-15T08:03:14;8.45;;;5.07;;
70247;SDS011;57641;51.416;5.506;2023-04-15T08:05:41;11.18;;;5.72;;
70247;SDS011;57641;51.416;5.506;2023-04-15T08:08:07;8.90;;;5.07;;
70247;SDS011;57641;51.416;5.506;2023-04-15T08:10:32;7.65;;;4.78;;
70247;SDS011;57641;51.416;5.506;2023-04-15T08:13:01;8.15;;;4.65;;
70247;SDS011;57641;51.416;5.506;2023-04-15T08:15:27;7.18;;;4.60;;
70247;SDS011;57641;51.416;5.506;2023-04-15T08:17:55;6.85;;;4.70;;
70247;SDS011;57641;51.416;5.506;2023-04-15T08:20:21;9.38;;;4.55;;
70247;SDS011;57641;51.416;5.506;2023-04-15T08:22:46;9.95;;;4.30;;
70247;SDS011;57641;51.416;5.506;2023-04-15T08:25:18;7.82;;;4.63;;
70247;SDS011;57641;51.416;5.506;2023-04-15T08:27:45;7.70;;;4.15;;
70247;SDS011;57641;51.416;5.506;2023-04-15T08:30:19;6.95;;;4.45;;
70247;SDS011;57641;51.416;5.506;2023-04-15T08:32:49;6.93;;;4.13;;
70247;SDS011;57641;51.416;5.506;2023-04-15T08:35:15;6.53;;;4.47;;
70247;SDS011;57641;51.416;5.506;2023-04-15T08:37:41;6.35;;;4.70;;
70247;SDS011;57641;51.416;5.506;2023-04-15T08:40:07;8.20;;;4.60;;
70247;SDS011;57641;51.416;5.506;2023-04-15T08:42:45;8.65;;;4.47;;
70247;SDS011;57641;51.416;5.506;2023-04-15T08:45:17;8.82;;;4.47;;
70247;SDS011;57641;51.416;5.506;2023-04-15T08:47:53;9.82;;;5.05;;
70247;SDS011;57641;51.416;5.506;2023-04-15T08:50:24;7.57;;;4.45;;
70247;SDS011;57641;51.416;5.506;2023-04-15T08:52:54;6.82;;;4.22;;
70247;SDS011;57641;51.416;5.506;2023-04-15T08:55:23;8.00;;;4.38;;
70247;SDS011;57641;51.416;5.506;2023-04-15T08:57:53;6.80;;;3.83;;
70247;SDS011;57641;51.416;5.506;2023-04-15T09:00:20;6.88;;;3.92;;
70247;SDS011;57641;51.416;5.506;2023-04-15T09:02:47;7.07;;;3.83;;
70247;SDS011;57641;51.416;5.506;2023-04-15T09:05:17;6.28;;;4.03;;
70247;SDS011;57641;51.416;5.506;2023-04-15T09:07:42;8.68;;;3.50;;
70247;SDS011;57641;51.416;5.506;2023-04-15T09:10:08;6.22;;;3.50;;
70247;SDS011;57641;51.416;5.506;2023-04-15T09:12:34;7.45;;;3.83;;
70247;SDS011;57641;51.416;5.506;2023-04-15T09:15:02;7.15;;;3.90;;
70247;SDS011;57641;51.416;5.506;2023-04-15T09:17:29;6.35;;;3.90;;
70247;SDS011;57641;51.416;5.506;2023-04-15T09:20:07;6.30;;;3.72;;
70247;SDS011;57641;51.416;5.506;2023-04-15T09:25:02;6.88;;;3.75;;
70247;SDS011;57641;51.416;5.506;2023-04-15T09:27:28;6.88;;;3.55;;
70247;SDS011;57641;51.416;5.506;2023-04-15T09:29:54;6.40;;;3.63;;
70247;SDS011;57641;51.416;5.506;2023-04-15T09:32:19;3.88;;;2.55;;
70247;SDS011;57641;51.416;5.506;2023-04-15T09:34:47;5.15;;;3.00;;
70247;SDS011;57641;51.416;5.506;2023-04-15T09:37:17;5.20;;;3.53;;
70247;SDS011;57641;51.416;5.506;2023-04-15T09:40:05;5.68;;;3.10;;
70247;SDS011;57641;51.416;5.506;2023-04-15T09:42:33;6.38;;;3.70;;
70247;SDS011;57641;51.416;5.506;2023-04-15T09:45:12;6.32;;;4.40;;
70247;SDS011;57641;51.416;5.506;2023-04-15T09:47:37;5.55;;;3.28;;
70247;SDS011;57641;51.416;5.506;2023-04-15T09:50:04;8.23;;;3.58;;
70247;SDS011;57641;51.416;5.506;2023-04-15T09:52:33;5.75;;;3.92;;
70247;SDS011;57641;51.416;5.506;2023-04-15T09:55:05;6.70;;;4.13;;
70247;SDS011;57641;51.416;5.506;2023-04-15T09:57:33;6.10;;;3.63;;
70247;SDS011;57641;51.416;5.506;2023-04-15T10:00:04;5.93;;;3.03;;
70247;SDS011;57641;51.416;5.506;2023-04-15T10:02:41;3.75;;;2.95;;
70247;SDS011;57641;51.416;5.506;2023-04-15T10:05:12;4.35;;;3.33;;
70247;SDS011;57641;51.416;5.506;2023-04-15T10:07:39;5.32;;;3.60;;
70247;SDS011;57641;51.416;5.506;2023-04-15T10:10:07;4.15;;;2.90;;
70247;SDS011;57641;51.416;5.506;2023-04-15T10:12:39;4.15;;;2.67;;
70247;SDS011;57641;51.416;5.506;2023-04-15T10:15:12;3.60;;;2.50;;
70247;SDS011;57641;51.416;5.506;2023-04-15T10:17:42;3.80;;;2.60;;
70247;SDS011;57641;51.416;5.506;2023-04-15T10:20:15;6.43;;;2.80;;
70247;SDS011;57641;51.416;5.506;2023-04-15T10:22:43;4.25;;;2.85;;
70247;SDS011;57641;51.416;5.506;2023-04-15T10:25:14;4.93;;;3.17;;
70247;SDS011;57641;51.416;5.506;2023-04-15T10:27:40;5.75;;;4.10;;
70247;SDS011;57641;51.416;5.506;2023-04-15T10:30:11;4.13;;;3.00;;
70247;SDS011;57641;51.416;5.506;2023-04-15T10:32:44;6.47;;;3.70;;
70247;SDS011;57641;51.416;5.506;2023-04-15T10:35:14;5.25;;;3.45;;
70247;SDS011;57641;51.416;5.506;2023-04-15T10:37:46;4.85;;;3.05;;
70247;SDS011;57641;51.416;5.506;2023-04-15T10:40:28;5.80;;;3.55;;
70247;SDS011;57641;51.416;5.506;2023-04-15T10:43:02;7.38;;;3.38;;
70247;SDS011;57641;51.416;5.506;2023-04-15T10:45:32;5.18;;;3.22;;
70247;SDS011;57641;51.416;5.506;2023-04-15T10:48:01;4.80;;;3.15;;
70247;SDS011;57641;51.416;5.506;2023-04-15T10:50:29;4.35;;;2.30;;
70247;SDS011;57641;51.416;5.506;2023-04-15T10:52:57;4.10;;;1.90;;
70247;SDS011;57641;51.416;5.506;2023-04-15T10:55:24;2.45;;;1.63;;
70247;SDS011;57641;51.416;5.506;2023-04-15T10:57:52;3.00;;;1.95;;
70247;SDS011;57641;51.416;5.506;2023-04-15T11:00:27;3.30;;;1.92;;
70247;SDS011;57641;51.416;5.506;2023-04-15T11:02:54;3.70;;;1.88;;
70247;SDS011;57641;51.416;5.506;2023-04-15T11:08:16;2.20;;;1.70;;
70247;SDS011;57641;51.416;5.506;2023-04-15T11:18:10;2.72;;;1.52;;
70247;SDS011;57641;51.416;5.506;2023-04-15T11:20:37;2.00;;;1.52;;
70247;SDS011;57641;51.416;5.506;2023-04-15T11:23:04;1.90;;;1.50;;
70247;SDS011;57641;51.416;5.506;2023-04-15T11:25:32;2.35;;;1.42;;
70247;SDS011;57641;51.416;5.506;2023-04-15T11:28:08;2.72;;;1.95;;
70247;SDS011;57641;51.416;5.506;2023-04-15T11:30:36;2.30;;;1.75;;
70247;SDS011;57641;51.416;5.506;2023-04-15T11:33:04;2.50;;;1.60;;
70247;SDS011;57641;51.416;5.506;2023-04-15T11:35:34;2.92;;;2.00;;
70247;SDS011;57641;51.416;5.506;2023-04-15T11:38:04;2.08;;;1.85;;
70247;SDS011;57641;51.416;5.506;2023-04-15T11:40:36;2.97;;;1.90;;
70247;SDS011;57641;51.416;5.506;2023-04-15T11:43:04;3.53;;;2.03;;
70247;SDS011;57641;51.416;5.506;2023-04-15T11:48:18;4.07;;;2.47;;
70247;SDS011;57641;51.416;5.506;2023-04-15T11:50:45;3.97;;;2.13;;
70247;SDS011;57641;51.416;5.506;2023-04-15T11:53:12;4.47;;;2.42;;
70247;SDS011;57641;51.416;5.506;2023-04-15T11:55:42;2.78;;;2.47;;
70247;SDS011;57641;51.416;5.506;2023-04-15T12:00:37;3.67;;;2.53;;
70247;SDS011;57641;51.416;5.506;2023-04-15T12:03:18;2.72;;;2.25;;
70247;SDS011;57641;51.416;5.506;2023-04-15T12:13:55;4.22;;;2.90;;
70247;SDS011;57641;51.416;5.506;2023-04-15T12:16:28;2.60;;;1.77;;
70247;SDS011;57641;51.416;5.506;2023-04-15T12:18:56;2.40;;;1.58;;
70247;SDS011;57641;51.416;5.506;2023-04-15T12:21:23;3.33;;;1.60;;
70247;SDS011;57641;51.416;5.506;2023-04-15T12:24:00;2.47;;;1.65;;
70247;SDS011;57641;51.416;5.506;2023-04-15T12:29:05;2.13;;;1.48;;
70247;SDS011;57641;51.416;5.506;2023-04-15T12:31:36;2.75;;;1.50;;
70247;SDS011;57641;51.416;5.506;2023-04-15T12:34:10;2.05;;;1.50;;
70247;SDS011;57641;51.416;5.506;2023-04-15T12:36:40;2.10;;;1.80;;
70247;SDS011;57641;51.416;5.506;2023-04-15T12:39:09;1.48;;;1.38;;
70247;SDS011;57641;51.416;5.506;2023-04-15T12:41:38;2.13;;;1.90;;
70247;SDS011;57641;51.416;5.506;2023-04-15T12:44:03;2.47;;;1.52;;
70247;SDS011;57641;51.416;5.506;2023-04-15T12:46:29;2.50;;;2.10;;
70247;SDS011;57641;51.416;5.506;2023-04-15T12:48:59;3.97;;;2.22;;
70247;SDS011;57641;51.416;5.506;2023-04-15T12:51:24;2.47;;;1.83;;
70247;SDS011;57641;51.416;5.506;2023-04-15T12:53:54;2.80;;;1.92;;
70247;SDS011;57641;51.416;5.506;2023-04-15T12:56:19;2.33;;;1.98;;
70247;SDS011;57641;51.416;5.506;2023-04-15T12:58:45;3.65;;;2.00;;
70247;SDS011;57641;51.416;5.506;2023-04-15T13:01:13;3.55;;;2.40;;
70247;SDS011;57641;51.416;5.506;2023-04-15T13:03:40;3.72;;;2.30;;
70247;SDS011;57641;51.416;5.506;2023-04-15T13:06:05;3.55;;;2.50;;
70247;SDS011;57641;51.416;5.506;2023-04-15T13:08:34;3.33;;;2.28;;
70247;SDS011;57641;51.416;5.506;2023-04-15T13:11:03;4.28;;;2.10;;
70247;SDS011;57641;51.416;5.506;2023-04-15T13:13:31;4.00;;;2.20;;
70247;SDS011;57641;51.416;5.506;2023-04-15T13:15:58;4.57;;;2.55;;
70247;SDS011;57641;51.416;5.506;2023-04-15T13:18:25;3.45;;;2.40;;
70247;SDS011;57641;51.416;5.506;2023-04-15T13:20:50;2.72;;;2.10;;
70247;SDS011;57641;51.416;5.506;2023-04-15T13:23:21;3.58;;;2.38;;
70247;SDS011;57641;51.416;5.506;2023-04-15T13:25:46;2.60;;;1.90;;
70247;SDS011;57641;51.416;5.506;2023-04-15T13:28:12;3.83;;;2.10;;
70247;SDS011;57641;51.416;5.506;2023-04-15T13:30:38;2.65;;;1.70;;
70247;SDS011;57641;51.416;5.506;2023-04-15T13:33:04;5.45;;;1.63;;
70247;SDS011;57641;51.416;5.506;2023-04-15T13:35:33;3.03;;;2.20;;
70247;SDS011;57641;51.416;5.506;2023-04-15T13:37:59;2.53;;;1.73;;
70247;SDS011;57641;51.416;5.506;2023-04-15T13:40:26;4.18;;;1.88;;
70247;SDS011;57641;51.416;5.506;2023-04-15T13:42:52;3.65;;;1.80;;
70247;SDS011;57641;51.416;5.506;2023-04-15T13:45:18;3.10;;;1.75;;
70247;SDS011;57641;51.416;5.506;2023-04-15T13:47:44;2.88;;;1.90;;
70247;SDS011;57641;51.416;5.506;2023-04-15T13:50:12;3.10;;;1.60;;
70247;SDS011;57641;51.416;5.506;2023-04-15T13:52:39;2.33;;;1.40;;
70247;SDS011;57641;51.416;5.506;2023-04-15T13:55:08;4.38;;;1.55;;
70247;SDS011;57641;51.416;5.506;2023-04-15T13:57:34;2.35;;;1.50;;
70247;SDS011;57641;51.416;5.506;2023-04-15T14:00:00;2.33;;;1.50;;
70247;SDS011;57641;51.416;5.506;2023-04-15T14:02:27;2.40;;;1.55;;
70247;SDS011;57641;51.416;5.506;2023-04-15T14:04:53;3.63;;;1.80;;
70247;SDS011;57641;51.416;5.506;2023-04-15T14:07:19;2.65;;;1.85;;
70247;SDS011;57641;51.416;5.506;2023-04-15T14:09:51;2.83;;;1.58;;
70247;SDS011;57641;51.416;5.506;2023-04-15T14:12:16;3.03;;;1.88;;
70247;SDS011;57641;51.416;5.506;2023-04-15T14:14:45;3.55;;;1.77;;
70247;SDS011;57641;51.416;5.506;2023-04-15T14:17:10;2.47;;;1.58;;
70247;SDS011;57641;51.416;5.506;2023-04-15T14:19:36;4.97;;;1.80;;
70247;SDS011;57641;51.416;5.506;2023-04-15T14:22:02;2.95;;;1.95;;
70247;SDS011;57641;51.416;5.506;2023-04-15T14:24:31;2.28;;;1.65;;
70247;SDS011;57641;51.416;5.506;2023-04-15T14:26:57;2.58;;;1.30;;
70247;SDS011;57641;51.416;5.506;2023-04-15T14:29:23;1.33;;;1.10;;
70247;SDS011;57641;51.416;5.506;2023-04-15T14:31:51;2.55;;;1.58;;
70247;SDS011;57641;51.416;5.506;2023-04-15T14:34:16;1.83;;;1.27;;
70247;SDS011;57641;51.416;5.506;2023-04-15T14:36:49;2.35;;;1.20;;
70247;SDS011;57641;51.416;5.506;2023-04-15T14:39:14;2.47;;;1.20;;
70247;SDS011;57641;51.416;5.506;2023-04-15T14:41:43;4.05;;;1.60;;
70247;SDS011;57641;51.416;5.506;2023-04-15T14:44:10;4.07;;;1.27;;
70247;SDS011;57641;51.416;5.506;2023-04-15T14:46:37;2.35;;;1.30;;
70247;SDS011;57641;51.416;5.506;2023-04-15T14:49:03;2.30;;;1.27;;
70247;SDS011;57641;51.416;5.506;2023-04-15T14:51:32;2.28;;;1.40;;
70247;SDS011;57641;51.416;5.506;2023-04-15T14:53:58;3.05;;;1.33;;
70247;SDS011;57641;51.416;5.506;2023-04-15T14:56:24;2.35;;;1.23;;
70247;SDS011;57641;51.416;5.506;2023-04-15T14:58:49;2.05;;;1.60;;
70247;SDS011;57641;51.416;5.506;2023-04-15T15:01:17;1.27;;;1.17;;
70247;SDS011;57641;51.416;5.506;2023-04-15T15:03:44;2.63;;;1.63;;
70247;SDS011;57641;51.416;5.506;2023-04-15T15:06:10;2.80;;;1.60;;
70247;SDS011;57641;51.416;5.506;2023-04-15T15:08:35;2.75;;;1.38;;
70247;SDS011;57641;51.416;5.506;2023-04-15T15:11:02;2.03;;;1.20;;